createdAt,value
2019-05-02T00:02:30.185Z,65.44
2019-05-02T00:05:00.410Z,65.42
2019-05-02T00:07:28.904Z,65.74
2019-05-02T00:10:01.588Z,65.09
2019-05-02T00:12:30.453Z,65.63
2019-05-02T00:15:02.124Z,65.53
2019-05-02T00:17:32.707Z,65.99
2019-05-02T00:20:01.127Z,65.67
2019-05-02T00:22:33.091Z,65.68
2019-05-02T00:25:01.546Z,64.62
2019-05-02T00:27:32.720Z,65.97
2019-05-02T00:30:00.392Z,65.97
2019-05-02T00:32:28.943Z,65.43
2019-05-02T00:34:59.502Z,65.87
2019-05-02T00:37:28.003Z,66.87
2019-05-02T00:39:57.498Z,66.02
2019-05-02T00:42:29.700Z,66.46
2019-05-02T00:44:58.119Z,67.09
2019-05-02T00:47:31.694Z,66.71
2019-05-02T00:50:00.115Z,67.44
2019-05-02T00:52:32.943Z,67.31
2019-05-02T00:54:59.892Z,67.06
2019-05-02T00:57:29.586Z,67.34
2019-05-02T00:59:58.949Z,68.16
2019-05-02T01:02:40.569Z,69.16
2019-05-02T01:05:11.746Z,68.86
2019-05-02T01:07:40.207Z,69.15
2019-05-02T01:10:17.027Z,69.75
2019-05-02T01:12:44.387Z,69.70
2019-05-02T01:15:13.298Z,70.03
2019-05-02T01:17:46.431Z,70.38
2019-05-02T01:20:15.966Z,69.87
2019-05-02T01:22:51.968Z,70.29
2019-05-02T01:25:19.761Z,70.57
2019-05-02T01:28:12.735Z,71.43
2019-05-02T01:30:44.559Z,71.34
2019-05-02T01:33:32.222Z,71.34
2019-05-02T01:36:11.364Z,71.87
2019-05-02T01:38:55.457Z,71.64
2019-05-02T01:41:28.588Z,71.88
2019-05-02T01:43:54.978Z,72.10
2019-05-02T01:46:24.279Z,72.55
2019-05-02T01:48:52.723Z,73.01
2019-05-02T01:51:25.045Z,72.88
2019-05-02T01:53:53.475Z,73.32
2019-05-02T01:56:24.403Z,72.65
2019-05-02T01:58:57.297Z,72.18
2019-05-02T02:01:23.349Z,72.18
2019-05-02T02:03:51.936Z,71.85
2019-05-02T02:06:20.411Z,71.78
2019-05-02T02:08:52.671Z,72.16
2019-05-02T02:11:28.499Z,71.52
2019-05-02T02:13:56.326Z,71.14
2019-05-02T02:16:24.831Z,71.16
2019-05-02T02:19:10.036Z,71.18
2019-05-02T02:21:42.752Z,71.73
2019-05-02T02:24:12.755Z,71.38
2019-05-02T02:26:43.705Z,71.17
2019-05-02T02:29:11.300Z,71.46
2019-05-02T02:31:46.275Z,71.24
2019-05-02T02:34:09.963Z,71.53
2019-05-02T02:36:38.384Z,71.51
2019-05-02T02:39:14.424Z,71.23
2019-05-02T02:41:45.275Z,71.95
2019-05-02T02:44:33.554Z,71.82
2019-05-02T02:47:00.838Z,71.96
2019-05-02T02:49:29.257Z,71.66
2019-05-02T02:52:04.157Z,71.65
2019-05-02T02:54:28.937Z,71.82
2019-05-02T02:56:58.320Z,71.69
2019-05-02T02:59:28.141Z,71.97
2019-05-02T03:02:08.680Z,71.72
2019-05-02T03:04:27.008Z,71.98
2019-05-02T03:06:55.613Z,72.55
2019-05-02T03:09:26.489Z,72.57
2019-05-02T03:12:14.253Z,71.92
2019-05-02T03:14:47.246Z,72.22
2019-05-02T03:17:20.371Z,71.89
2019-05-02T03:19:45.193Z,72.44
2019-05-02T03:22:19.062Z,72.29
2019-05-02T03:24:50.367Z,72.91
2019-05-02T03:27:18.890Z,73.12
2019-05-02T03:29:47.610Z,72.57
2019-05-02T03:32:31.466Z,72.65
2019-05-02T03:34:53.527Z,72.17
2019-05-02T03:37:19.255Z,71.99
2019-05-02T03:39:57.413Z,72.80
2019-05-02T03:42:21.305Z,72.91
2019-05-02T03:44:56.072Z,72.91
2019-05-02T03:47:21.096Z,72.47
2019-05-02T03:49:52.258Z,72.11
2019-05-02T03:52:23.358Z,72.55
2019-05-02T03:54:52.438Z,72.39
2019-05-02T03:57:31.999Z,71.52
2019-05-02T03:59:53.517Z,70.99
2019-05-02T04:02:22.304Z,71.35
2019-05-02T04:04:54.307Z,70.77
2019-05-02T04:07:21.683Z,70.61
2019-05-02T04:09:50.951Z,70.70
2019-05-02T04:12:21.948Z,70.86
2019-05-02T04:14:56.018Z,71.00
2019-05-02T04:17:28.684Z,70.69
2019-05-02T04:19:56.789Z,70.85
2019-05-02T04:22:26.084Z,71.02
2019-05-02T04:24:56.794Z,70.62
2019-05-02T04:27:27.745Z,70.40
2019-05-02T04:29:56.875Z,69.83
2019-05-02T04:32:26.270Z,70.60
2019-05-02T04:34:57.759Z,70.21
2019-05-02T04:37:25.200Z,69.77
2019-05-02T04:39:57.886Z,70.36
2019-05-02T04:42:23.806Z,70.31
2019-05-02T04:45:11.863Z,69.84
2019-05-02T04:47:28.957Z,69.99
2019-05-02T04:49:58.012Z,69.94
2019-05-02T04:52:29.970Z,70.02
2019-05-02T04:55:12.071Z,70.47
2019-05-02T04:57:36.265Z,70.44
2019-05-02T05:00:06.715Z,70.70
2019-05-02T05:02:34.198Z,71.17
2019-05-02T05:05:02.140Z,70.94
2019-05-02T05:07:40.905Z,70.45
2019-05-02T05:10:04.617Z,70.30
2019-05-02T05:12:39.976Z,70.61
2019-05-02T05:15:03.609Z,70.48
2019-05-02T05:17:34.191Z,70.42
2019-05-02T05:20:10.951Z,70.60
2019-05-02T05:22:36.519Z,70.57
2019-05-02T05:25:04.587Z,70.28
2019-05-02T05:27:33.057Z,70.72
2019-05-02T05:30:07.914Z,70.10
2019-05-02T05:32:31.628Z,69.76
2019-05-02T05:35:03.516Z,70.71
2019-05-02T05:37:32.663Z,71.22
2019-05-02T05:40:01.327Z,70.32
2019-05-02T05:42:33.184Z,70.25
2019-05-02T05:51:02.909Z,69.48
2019-05-02T05:53:31.321Z,69.36
2019-05-02T05:56:02.501Z,68.83
2019-05-02T05:58:29.908Z,68.87
2019-05-02T06:00:58.752Z,68.34
2019-05-02T06:03:27.809Z,67.95
2019-05-02T06:05:58.017Z,67.93
2019-05-02T06:08:26.519Z,68.46
2019-05-02T06:10:54.936Z,67.75
2019-05-02T06:13:23.434Z,67.83
2019-05-02T06:16:02.011Z,66.83
2019-05-02T06:18:21.999Z,67.20
2019-05-02T06:20:58.235Z,66.78
2019-05-02T06:23:25.449Z,66.88
2019-05-02T06:25:53.886Z,67.52
2019-05-02T06:28:22.424Z,65.85
2019-05-02T06:30:50.808Z,65.92
2019-05-02T06:33:19.245Z,66.32
2019-05-02T06:35:51.882Z,65.74
2019-05-02T06:38:21.697Z,65.94
2019-05-02T06:40:48.021Z,66.28
2019-05-02T06:43:16.454Z,65.48
2019-05-02T06:45:44.882Z,65.70
2019-05-02T06:48:17.511Z,66.06
2019-05-02T06:50:43.478Z,66.22
2019-05-02T06:53:11.909Z,66.13
2019-05-02T06:55:40.345Z,65.87
2019-05-02T06:58:08.745Z,65.62
2019-05-02T07:00:55.248Z,65.83
2019-05-02T07:03:10.337Z,65.30
2019-05-02T07:05:37.524Z,65.85
2019-05-02T07:08:11.033Z,65.78
2019-05-02T07:10:44.583Z,65.71
2019-05-02T07:13:10.865Z,65.00
2019-05-02T07:15:40.361Z,65.29
2019-05-02T07:18:15.667Z,66.24
2019-05-02T07:20:44.131Z,66.94
2019-05-02T07:23:16.153Z,67.21
2019-05-02T07:25:45.247Z,66.76
2019-05-02T07:28:16.742Z,66.94
2019-05-02T07:30:45.156Z,66.37
2019-05-02T07:33:13.574Z,67.29
2019-05-02T07:35:42.037Z,67.38
2019-05-02T07:38:10.453Z,67.52
2019-05-02T07:40:43.228Z,67.86
2019-05-02T07:43:13.494Z,68.40
2019-05-02T07:45:45.459Z,68.04
2019-05-02T07:48:12.522Z,69.01
2019-05-02T07:50:46.583Z,67.91
2019-05-02T07:53:14.383Z,68.42
2019-05-02T07:55:43.426Z,69.17
2019-05-02T07:58:11.941Z,69.42
2019-05-02T08:00:40.365Z,69.20
2019-05-02T08:03:12.558Z,69.49
2019-05-02T08:05:41.945Z,69.10
2019-05-02T08:08:14.409Z,68.83
2019-05-02T08:10:43.099Z,68.68
2019-05-02T08:13:17.465Z,68.23
2019-05-02T08:15:45.696Z,68.58
2019-05-02T08:18:19.135Z,68.80
2019-05-02T08:20:56.092Z,68.76
2019-05-02T08:23:27.703Z,69.37
2019-05-02T08:25:56.792Z,70.00
2019-05-02T08:28:34.660Z,70.07
2019-05-02T08:31:03.078Z,69.93
2019-05-02T08:33:34.828Z,70.08
2019-05-02T08:36:06.261Z,70.22
2019-05-02T08:38:43.326Z,70.21
2019-05-02T08:41:11.756Z,69.98
2019-05-02T08:43:44.694Z,70.17
2019-05-02T08:46:14.422Z,69.78
2019-05-02T08:48:43.573Z,70.52
2019-05-02T08:51:12.626Z,70.69
2019-05-02T08:53:43.460Z,70.17
2019-05-02T08:56:16.019Z,71.04
2019-05-02T08:58:44.914Z,71.48
2019-05-02T09:01:18.779Z,71.86
2019-05-02T09:03:56.993Z,71.41
2019-05-02T09:06:25.627Z,70.05
2019-05-02T09:08:54.054Z,69.52
2019-05-02T09:11:22.456Z,68.61
2019-05-02T09:13:54.983Z,67.78
2019-05-02T09:16:28.460Z,68.99
2019-05-02T09:18:55.599Z,68.80
2019-05-02T09:21:26.725Z,68.57
2019-05-02T09:23:54.468Z,67.10
2019-05-02T09:26:35.036Z,65.41
2019-05-02T09:28:56.333Z,66.18
2019-05-02T09:31:25.880Z,66.19
2019-05-02T09:33:55.652Z,65.97
2019-05-02T09:36:24.221Z,66.20
2019-05-02T09:39:00.206Z,66.27
2019-05-02T09:41:34.415Z,66.69
2019-05-02T09:44:03.956Z,66.04
2019-05-02T09:46:35.084Z,65.93
2019-05-02T09:49:16.660Z,66.24
2019-05-02T09:51:45.598Z,66.53
2019-05-02T09:54:14.669Z,67.31
2019-05-02T09:56:49.655Z,66.11
2019-05-02T09:59:27.671Z,66.66
2019-05-02T10:01:48.253Z,66.27
2019-05-02T10:04:16.720Z,67.15
2019-05-02T10:06:47.649Z,66.23
2019-05-02T10:09:18.772Z,66.70
2019-05-02T10:11:46.252Z,66.54
2019-05-02T10:14:25.672Z,67.14
2019-05-02T10:17:06.985Z,66.79
2019-05-02T10:19:48.820Z,67.69
2019-05-02T10:22:12.259Z,68.05
2019-05-02T10:24:42.535Z,67.74
2019-05-02T10:27:12.661Z,67.70
2019-05-02T10:29:41.857Z,67.75
2019-05-02T10:32:15.065Z,67.53
2019-05-02T10:34:47.442Z,68.21
2019-05-02T10:37:13.357Z,67.82
2019-05-02T10:39:43.854Z,67.91
2019-05-02T10:42:12.521Z,67.60
2019-05-02T10:44:42.683Z,66.82
2019-05-02T10:47:19.186Z,66.93
2019-05-02T10:49:58.370Z,66.97
2019-05-02T10:52:31.394Z,67.10
2019-05-02T10:54:59.541Z,67.55
2019-05-02T10:57:27.935Z,67.09
2019-05-02T10:59:56.363Z,67.08
2019-05-02T11:02:26.605Z,66.67
2019-05-02T11:05:08.723Z,67.25
2019-05-02T11:07:41.885Z,67.86
2019-05-02T11:10:42.253Z,67.33
2019-05-02T11:13:23.505Z,67.07
2019-05-02T11:16:01.704Z,68.26
2019-05-02T11:18:41.981Z,68.39
2019-05-02T11:21:08.090Z,68.61
2019-05-02T11:23:37.555Z,68.89
2019-05-02T11:26:06.143Z,68.65
2019-05-02T11:28:34.671Z,68.40
2019-05-02T11:31:07.561Z,67.70
2019-05-02T11:33:36.797Z,67.69
2019-05-02T11:36:05.209Z,67.71
2019-05-02T11:38:34.146Z,69.35
2019-05-02T11:41:02.877Z,69.53
2019-05-02T11:43:32.595Z,69.84
2019-05-02T11:46:06.956Z,69.43
2019-05-02T11:48:31.976Z,69.58
2019-05-02T11:51:02.614Z,69.48
2019-05-02T11:53:32.549Z,68.24
2019-05-02T11:56:03.723Z,67.71
2019-05-02T11:58:32.490Z,68.79
2019-05-02T12:01:05.025Z,69.23
2019-05-02T12:03:36.923Z,68.94
2019-05-02T12:06:06.690Z,69.30
2019-05-02T12:08:39.437Z,69.74
2019-05-02T12:11:08.437Z,69.46
2019-05-02T12:13:36.053Z,69.60
2019-05-02T12:16:08.670Z,69.61
2019-05-02T12:18:37.082Z,68.75
2019-05-02T12:21:07.856Z,67.70
2019-05-02T12:23:36.531Z,66.33
2019-05-02T12:26:07.633Z,66.42
2019-05-02T12:28:36.088Z,66.30
2019-05-02T12:31:07.988Z,67.33
2019-05-02T12:33:37.092Z,66.67
2019-05-02T12:36:07.990Z,67.31
2019-05-02T12:38:36.415Z,68.20
2019-05-02T12:41:04.992Z,68.09
2019-05-02T12:43:33.563Z,68.18
2019-05-02T12:46:06.194Z,68.19
2019-05-02T12:48:34.620Z,68.83
2019-05-02T12:51:03.045Z,68.95
2019-05-02T12:53:32.639Z,69.06
2019-05-02T12:56:02.192Z,68.67
2019-05-02T12:58:32.492Z,68.88
2019-05-02T13:01:05.437Z,68.96
2019-05-02T13:03:38.285Z,68.72
2019-05-02T13:06:06.697Z,68.54
2019-05-02T13:08:36.754Z,68.66
2019-05-02T13:11:14.306Z,68.56
2019-05-02T13:13:43.621Z,69.43
2019-05-02T13:16:12.462Z,69.17
2019-05-02T13:18:42.396Z,69.38
2019-05-02T13:21:17.071Z,69.99
2019-05-02T13:23:51.705Z,71.32
2019-05-02T13:26:26.262Z,72.48
2019-05-02T13:28:51.683Z,72.40
2019-05-02T13:31:25.982Z,72.81
2019-05-02T13:33:58.738Z,73.59
2019-05-02T13:36:46.175Z,72.93
2019-05-02T13:39:33.268Z,72.98
2019-05-02T13:42:01.852Z,72.55
2019-05-02T13:44:32.685Z,72.33
2019-05-02T13:47:14.429Z,72.46
2019-05-02T13:49:53.244Z,72.54
2019-05-02T13:52:13.629Z,71.57
2019-05-02T13:54:42.607Z,71.32
2019-05-02T13:57:12.139Z,71.40
2019-05-02T13:59:41.669Z,69.75
2019-05-02T14:02:31.643Z,69.54
2019-05-02T14:05:02.094Z,68.33
2019-05-02T14:07:30.359Z,68.34
2019-05-02T14:10:02.446Z,67.98
2019-05-02T14:12:36.608Z,68.04
2019-05-02T14:15:06.851Z,68.22
2019-05-02T14:17:35.266Z,69.43
2019-05-02T14:20:10.736Z,69.70
2019-05-02T14:22:34.423Z,69.89
2019-05-02T14:25:05.647Z,69.18
2019-05-02T14:27:34.100Z,68.50
2019-05-02T14:30:02.631Z,67.75
2019-05-02T14:32:33.580Z,67.48
2019-05-02T14:35:03.640Z,67.75
2019-05-02T14:37:32.290Z,67.99
2019-05-02T14:40:02.352Z,68.21
2019-05-02T14:42:32.232Z,68.02
2019-05-02T14:45:08.921Z,68.33
2019-05-02T14:47:34.534Z,66.66
2019-05-02T14:50:05.219Z,67.24
2019-05-02T14:52:37.152Z,66.47
2019-05-02T14:55:05.901Z,66.06
2019-05-02T14:57:34.336Z,66.87
2019-05-02T15:00:03.433Z,68.31
2019-05-02T15:02:39.223Z,68.62
2019-05-02T15:05:07.228Z,69.02
2019-05-02T15:07:38.405Z,68.98
2019-05-02T15:10:06.739Z,68.45
2019-05-02T15:12:38.893Z,68.10
2019-05-02T15:15:14.252Z,66.71
2019-05-02T15:17:42.708Z,66.71
2019-05-02T15:20:13.032Z,66.74
2019-05-02T15:22:42.455Z,66.54
2019-05-02T15:25:13.763Z,66.76
2019-05-02T15:27:43.038Z,66.86
2019-05-02T15:30:15.979Z,67.41
2019-05-02T15:32:46.620Z,67.28
2019-05-02T15:38:08.380Z,69.42
2019-05-02T15:40:46.850Z,69.78
2019-05-02T15:43:09.576Z,70.69
2019-05-02T15:45:42.040Z,70.92
2019-05-02T15:48:08.209Z,71.47
2019-05-02T15:50:43.587Z,71.05
2019-05-02T15:53:10.054Z,72.37
2019-05-02T15:55:42.130Z,73.76
2019-05-02T15:58:17.147Z,72.77
2019-05-02T16:00:48.330Z,72.96
2019-05-02T16:03:16.749Z,73.76
2019-05-02T16:05:45.353Z,74.25
2019-05-02T16:08:13.732Z,74.68
2019-05-02T16:10:42.832Z,74.93
2019-05-02T16:13:13.471Z,74.90
2019-05-02T16:15:46.573Z,74.79
2019-05-02T16:18:15.002Z,74.03
2019-05-02T16:21:04.473Z,74.62
2019-05-02T16:23:29.920Z,74.41
2019-05-02T16:25:52.374Z,74.54
2019-05-02T16:28:45.388Z,74.42
2019-05-02T16:31:17.041Z,73.70
2019-05-02T16:33:42.598Z,74.80
2019-05-02T16:36:12.620Z,74.48
2019-05-02T16:38:42.442Z,74.86
2019-05-02T16:41:12.198Z,75.48
2019-05-02T16:43:41.927Z,75.06
2019-05-02T16:46:11.862Z,73.97
2019-05-02T16:48:42.607Z,72.31
2019-05-02T16:51:30.063Z,72.61
2019-05-02T16:53:43.364Z,72.58
2019-05-02T16:56:11.775Z,72.70
2019-05-02T16:58:43.319Z,72.75
2019-05-02T17:01:12.252Z,72.63
2019-05-02T17:03:42.354Z,73.24
2019-05-02T17:06:12.393Z,73.43
2019-05-02T17:08:49.570Z,73.59
2019-05-02T17:11:27.746Z,73.36
2019-05-02T17:14:02.151Z,73.36
2019-05-02T17:16:31.590Z,73.39
2019-05-02T17:19:01.687Z,73.52
2019-05-02T17:21:44.575Z,73.14
2019-05-02T17:24:02.484Z,74.10
2019-05-02T17:26:31.783Z,73.50
2019-05-02T17:29:02.407Z,73.62
2019-05-02T17:31:32.214Z,73.48
2019-05-02T17:34:02.767Z,73.79
2019-05-02T17:36:32.520Z,74.05
2019-05-02T17:39:06.777Z,73.74
2019-05-02T17:41:32.161Z,73.92
2019-05-02T17:44:00.568Z,73.49
2019-05-02T17:46:29.818Z,73.30
2019-05-02T17:48:58.203Z,73.47
2019-05-02T17:51:35.775Z,74.46
2019-05-02T17:54:03.262Z,73.67
2019-05-02T17:56:32.530Z,73.54
2019-05-02T17:59:02.327Z,73.29
2019-05-02T18:01:38.799Z,73.26
2019-05-02T18:04:16.598Z,74.12
2019-05-02T18:06:52.337Z,73.53
2019-05-02T18:09:21.648Z,73.93
2019-05-02T18:11:54.304Z,73.52
2019-05-02T18:14:24.098Z,73.72
2019-05-02T18:16:55.564Z,73.70
2019-05-02T18:19:24.513Z,73.04
2019-05-02T18:21:52.938Z,73.68
2019-05-02T18:24:22.281Z,73.18
2019-05-02T18:26:56.169Z,73.67
2019-05-02T18:29:27.092Z,73.52
2019-05-02T18:31:55.478Z,72.46
2019-05-02T18:34:25.237Z,72.60
2019-05-02T18:36:57.358Z,72.67
2019-05-02T18:40:06.727Z,73.07
2019-05-02T18:42:07.418Z,72.20
2019-05-02T18:44:39.593Z,72.52
2019-05-02T18:47:19.998Z,71.90
2019-05-02T18:49:42.127Z,71.08
2019-05-02T18:52:11.685Z,70.87
2019-05-02T18:54:45.683Z,71.30
2019-05-02T18:57:17.181Z,70.27
2019-05-02T18:59:52.070Z,71.04
2019-05-02T19:02:21.585Z,70.11
2019-05-02T19:04:52.695Z,70.53
2019-05-02T19:07:30.907Z,70.02
2019-05-02T19:10:18.838Z,69.37
2019-05-02T19:12:56.210Z,68.73
2019-05-02T19:15:55.946Z,68.70
2019-05-02T19:18:54.466Z,69.04
2019-05-02T19:28:07.159Z,67.23
2019-05-02T19:33:46.647Z,66.92
2019-05-02T19:39:29.260Z,66.88
2019-05-02T19:41:57.686Z,67.44
2019-05-02T19:44:29.142Z,67.27
2019-05-02T19:46:57.033Z,67.33
2019-05-02T19:49:27.912Z,67.75
2019-05-02T19:51:59.424Z,67.57
2019-05-02T19:54:31.806Z,67.29
2019-05-02T19:56:57.962Z,67.24
2019-05-02T19:59:27.395Z,66.95
2019-05-02T20:01:56.971Z,67.32
2019-05-02T20:04:26.758Z,68.37
2019-05-02T20:06:55.159Z,67.70
2019-05-02T20:09:23.668Z,67.41
2019-05-02T20:11:52.238Z,66.48
2019-05-02T20:14:21.840Z,66.12
2019-05-02T20:16:53.337Z,66.14
2019-05-02T20:19:23.195Z,66.05
2019-05-02T20:21:57.206Z,66.11
2019-05-02T20:24:24.868Z,66.17
2019-05-02T20:26:56.126Z,66.61
2019-05-02T20:29:23.499Z,67.09
2019-05-02T20:31:58.183Z,67.14
2019-05-02T20:34:26.582Z,67.42
2019-05-02T20:36:58.854Z,67.86
2019-05-02T20:39:26.574Z,67.52
2019-05-02T20:42:02.693Z,67.52
2019-05-02T20:44:32.084Z,68.29
2019-05-02T20:47:02.586Z,67.83
2019-05-02T20:49:31.202Z,67.80
2019-05-02T20:51:59.741Z,68.75
2019-05-02T20:54:28.784Z,68.32
2019-05-02T20:56:59.968Z,67.78
2019-05-02T20:59:29.317Z,68.03
2019-05-02T21:02:01.722Z,67.56
2019-05-02T21:04:34.957Z,68.01
2019-05-02T21:07:09.444Z,67.54
2019-05-02T21:09:44.404Z,67.64
2019-05-02T21:12:13.909Z,67.49
2019-05-02T21:14:42.372Z,67.05
2019-05-02T21:17:12.751Z,66.77
2019-05-02T21:19:45.907Z,66.92
2019-05-02T21:22:18.688Z,67.45
2019-05-02T21:24:49.933Z,67.35
2019-05-02T21:27:19.428Z,66.81
2019-05-02T21:29:47.911Z,66.35
2019-05-02T21:32:22.913Z,66.42
2019-05-02T21:34:52.551Z,66.33
2019-05-02T21:37:22.605Z,66.18
2019-05-02T21:39:52.297Z,66.14
2019-05-02T21:42:22.636Z,66.42
2019-05-02T21:44:52.495Z,66.65
2019-05-02T21:47:23.366Z,67.63
2019-05-02T21:49:56.177Z,67.57
2019-05-02T21:52:26.284Z,68.24
2019-05-02T21:54:58.604Z,67.93
2019-05-02T21:57:27.050Z,67.96
2019-05-02T21:59:55.506Z,67.63
2019-05-02T22:02:26.640Z,67.87
2019-05-02T22:04:56.910Z,68.74
2019-05-02T22:07:25.366Z,68.39
2019-05-02T22:09:57.640Z,68.15
2019-05-02T22:12:27.135Z,68.65
2019-05-02T22:14:57.938Z,68.83
2019-05-02T22:17:32.329Z,68.43
2019-05-02T22:20:01.801Z,68.70
2019-05-02T22:22:31.758Z,69.46
2019-05-02T22:25:02.245Z,69.58
2019-05-02T22:27:32.475Z,69.30
2019-05-02T22:30:02.129Z,69.32
2019-05-02T22:32:36.783Z,69.39
2019-05-02T22:35:05.991Z,69.34
2019-05-02T22:37:37.289Z,69.60
2019-05-02T22:40:13.554Z,69.05
2019-05-02T22:42:42.136Z,67.85
2019-05-02T22:45:12.535Z,68.04
2019-05-02T22:47:42.617Z,67.97
2019-05-02T22:50:15.295Z,67.85
2019-05-02T22:52:42.748Z,67.62
2019-05-02T22:55:16.909Z,68.65
2019-05-02T22:57:45.486Z,67.86
2019-05-02T23:00:14.375Z,69.03
2019-05-02T23:02:42.903Z,68.32
2019-05-02T23:05:13.758Z,68.47
2019-05-02T23:07:42.970Z,68.15
2019-05-02T23:10:12.638Z,68.98
2019-05-02T23:12:42.373Z,69.71
2019-05-02T23:15:12.575Z,69.92
2019-05-02T23:17:42.778Z,70.51
2019-05-02T23:20:14.012Z,70.07
2019-05-02T23:22:43.516Z,70.62
2019-05-02T23:25:14.332Z,70.63
2019-05-02T23:27:44.472Z,69.39
2019-05-02T23:30:15.208Z,69.97
2019-05-02T23:32:45.328Z,69.77
2019-05-02T23:35:13.833Z,69.78
2019-05-02T23:37:42.501Z,70.04
2019-05-02T23:40:14.018Z,69.75
2019-05-02T23:42:42.476Z,70.01
2019-05-02T23:45:13.505Z,69.81
2019-05-02T23:47:42.911Z,69.70
2019-05-02T23:50:12.149Z,69.03
2019-05-02T23:52:43.127Z,68.52
2019-05-02T23:55:12.300Z,68.38
2019-05-02T23:57:42.047Z,68.88
